sensor_id;sensor_type;location;lat;lon;timestamp;pressure;altitude;pressure_sealevel;temperature;humidity
65872;BME280;52653;50.080;21.992;2023-02-23T00:00:53;99432.14;;;-1.03;77.27
65872;BME280;52653;50.080;21.992;2023-02-23T00:03:39;99432.98;;;-1.07;77.35
65872;BME280;52653;50.080;21.992;2023-02-23T00:06:33;99431.42;;;-1.15;77.31
65872;BME280;52653;50.080;21.992;2023-02-23T00:09:27;99428.94;;;-1.26;77.50
65872;BME280;52653;50.080;21.992;2023-02-23T00:12:24;99432.47;;;-1.36;77.77
65872;BME280;52653;50.080;21.992;2023-02-23T00:15:17;99436.56;;;-1.44;78.02
65872;BME280;52653;50.080;21.992;2023-02-23T00:18:10;99436.71;;;-1.53;77.83
65872;BME280;52653;50.080;21.992;2023-02-23T00:21:05;99439.21;;;-1.58;77.86
65872;BME280;52653;50.080;21.992;2023-02-23T00:23:59;99442.44;;;-1.63;77.91
65872;BME280;52653;50.080;21.992;2023-02-23T00:26:52;99441.19;;;-1.68;78.13
65872;BME280;52653;50.080;21.992;2023-02-23T00:29:39;99438.75;;;-1.73;78.02
65872;BME280;52653;50.080;21.992;2023-02-23T00:32:31;99435.99;;;-1.77;78.31
65872;BME280;52653;50.080;21.992;2023-02-23T00:35:25;99436.15;;;-1.81;78.33
65872;BME280;52653;50.080;21.992;2023-02-23T00:38:18;99436.70;;;-1.84;78.39
65872;BME280;52653;50.080;21.992;2023-02-23T00:41:14;99435.25;;;-1.86;78.63
65872;BME280;52653;50.080;21.992;2023-02-23T00:44:10;99432.29;;;-1.87;78.59
65872;BME280;52653;50.080;21.992;2023-02-23T00:47:06;99430.52;;;-1.88;78.46
65872;BME280;52653;50.080;21.992;2023-02-23T00:49:59;99432.67;;;-1.86;78.51
65872;BME280;52653;50.080;21.992;2023-02-23T00:52:52;99432.80;;;-1.83;78.84
65872;BME280;52653;50.080;21.992;2023-02-23T00:55:45;99434.15;;;-1.84;79.17
65872;BME280;52653;50.080;21.992;2023-02-23T00:58:39;99432.40;;;-1.88;79.16
65872;BME280;52653;50.080;21.992;2023-02-23T01:01:32;99434.89;;;-1.94;79.45
65872;BME280;52653;50.080;21.992;2023-02-23T01:04:25;99434.42;;;-2.00;79.64
65872;BME280;52653;50.080;21.992;2023-02-23T01:07:18;99439.10;;;-2.07;79.85
65872;BME280;52653;50.080;21.992;2023-02-23T01:10:11;99441.77;;;-2.13;80.20
65872;BME280;52653;50.080;21.992;2023-02-23T01:13:11;99439.92;;;-2.19;80.32
65872;BME280;52653;50.080;21.992;2023-02-23T01:16:04;99440.41;;;-2.23;80.48
65872;BME280;52653;50.080;21.992;2023-02-23T01:19:01;99440.62;;;-2.26;80.66
65872;BME280;52653;50.080;21.992;2023-02-23T01:21:54;99440.94;;;-2.27;81.36
65872;BME280;52653;50.080;21.992;2023-02-23T01:24:46;99437.44;;;-2.24;81.97
65872;BME280;52653;50.080;21.992;2023-02-23T01:27:39;99436.36;;;-2.22;82.27
65872;BME280;52653;50.080;21.992;2023-02-23T01:30:32;99431.67;;;-2.19;82.59
65872;BME280;52653;50.080;21.992;2023-02-23T01:33:25;99432.45;;;-2.16;82.55
65872;BME280;52653;50.080;21.992;2023-02-23T01:36:18;99431.14;;;-2.16;82.67
65872;BME280;52653;50.080;21.992;2023-02-23T01:39:13;99428.27;;;-2.15;82.56
65872;BME280;52653;50.080;21.992;2023-02-23T01:42:10;99428.44;;;-2.15;82.63
65872;BME280;52653;50.080;21.992;2023-02-23T01:45:31;99426.80;;;-2.16;82.52
65872;BME280;52653;50.080;21.992;2023-02-23T01:48:27;99429.98;;;-2.18;82.58
65872;BME280;52653;50.080;21.992;2023-02-23T01:51:24;99425.91;;;-2.21;82.49
65872;BME280;52653;50.080;21.992;2023-02-23T01:54:21;99426.00;;;-2.23;82.45
65872;BME280;52653;50.080;21.992;2023-02-23T01:57:18;99422.59;;;-2.26;82.53
65872;BME280;52653;50.080;21.992;2023-02-23T02:00:14;99423.27;;;-2.29;82.51
65872;BME280;52653;50.080;21.992;2023-02-23T02:03:14;99419.30;;;-2.34;82.47
65872;BME280;52653;50.080;21.992;2023-02-23T02:06:11;99420.30;;;-2.38;82.63
65872;BME280;52653;50.080;21.992;2023-02-23T02:09:08;99419.79;;;-2.42;82.85
65872;BME280;52653;50.080;21.992;2023-02-23T02:12:11;99423.22;;;-2.46;82.68
65872;BME280;52653;50.080;21.992;2023-02-23T02:15:07;99417.87;;;-2.46;83.30
65872;BME280;52653;50.080;21.992;2023-02-23T02:18:12;99414.46;;;-2.42;83.50
65872;BME280;52653;50.080;21.992;2023-02-23T02:21:37;99409.55;;;-2.37;83.64
65872;BME280;52653;50.080;21.992;2023-02-23T02:31:54;99405.69;;;-2.28;83.48
65872;BME280;52653;50.080;21.992;2023-02-23T02:35:25;99409.50;;;-2.27;83.61
65872;BME280;52653;50.080;21.992;2023-02-23T02:38:35;99408.34;;;-2.26;83.62
65872;BME280;52653;50.080;21.992;2023-02-23T02:41:38;99411.36;;;-2.31;84.01
65872;BME280;52653;50.080;21.992;2023-02-23T02:44:40;99411.86;;;-2.35;84.04
65872;BME280;52653;50.080;21.992;2023-02-23T02:47:44;99409.66;;;-2.39;83.94
65872;BME280;52653;50.080;21.992;2023-02-23T02:50:44;99407.48;;;-2.41;83.96
65872;BME280;52653;50.080;21.992;2023-02-23T02:53:47;99407.17;;;-2.44;83.95
65872;BME280;52653;50.080;21.992;2023-02-23T02:56:45;99407.92;;;-2.46;84.17
65872;BME280;52653;50.080;21.992;2023-02-23T02:59:47;99408.48;;;-2.49;84.40
65872;BME280;52653;50.080;21.992;2023-02-23T03:02:58;99408.93;;;-2.53;84.69
65872;BME280;52653;50.080;21.992;2023-02-23T03:06:09;99410.50;;;-2.57;84.75
65872;BME280;52653;50.080;21.992;2023-02-23T03:09:42;99410.04;;;-2.59;85.02
65872;BME280;52653;50.080;21.992;2023-02-23T03:13:04;99404.92;;;-2.62;85.27
65872;BME280;52653;50.080;21.992;2023-02-23T03:16:24;99406.92;;;-2.63;85.54
65872;BME280;52653;50.080;21.992;2023-02-23T03:19:44;99409.00;;;-2.63;85.75
65872;BME280;52653;50.080;21.992;2023-02-23T03:23:02;99409.30;;;-2.64;85.85
65872;BME280;52653;50.080;21.992;2023-02-23T03:26:20;99411.19;;;-2.64;85.82
65872;BME280;52653;50.080;21.992;2023-02-23T03:29:35;99410.98;;;-2.65;86.57
65872;BME280;52653;50.080;21.992;2023-02-23T03:32:45;99409.38;;;-2.66;86.89
65872;BME280;52653;50.080;21.992;2023-02-23T03:36:01;99411.83;;;-2.65;87.00
65872;BME280;52653;50.080;21.992;2023-02-23T03:39:20;99408.16;;;-2.67;86.85
65872;BME280;52653;50.080;21.992;2023-02-23T03:42:34;99406.79;;;-2.66;87.36
65872;BME280;52653;50.080;21.992;2023-02-23T03:45:40;99406.86;;;-2.65;87.52
65872;BME280;52653;50.080;21.992;2023-02-23T03:48:54;99402.73;;;-2.65;87.56
65872;BME280;52653;50.080;21.992;2023-02-23T03:52:12;99398.39;;;-2.66;87.91
65872;BME280;52653;50.080;21.992;2023-02-23T03:55:28;99399.39;;;-2.67;87.85
65872;BME280;52653;50.080;21.992;2023-02-23T03:58:41;99401.61;;;-2.63;87.89
65872;BME280;52653;50.080;21.992;2023-02-23T04:01:55;99397.96;;;-2.60;88.19
65872;BME280;52653;50.080;21.992;2023-02-23T04:05:10;99398.07;;;-2.58;88.31
65872;BME280;52653;50.080;21.992;2023-02-23T04:08:27;99398.95;;;-2.57;88.32
65872;BME280;52653;50.080;21.992;2023-02-23T04:11:48;99398.98;;;-2.57;88.11
65872;BME280;52653;50.080;21.992;2023-02-23T04:15:03;99397.66;;;-2.56;88.47
65872;BME280;52653;50.080;21.992;2023-02-23T04:17:50;99396.77;;;-2.53;88.41
65872;BME280;52653;50.080;21.992;2023-02-23T04:20:44;99399.70;;;-2.49;88.63
65872;BME280;52653;50.080;21.992;2023-02-23T04:23:40;99397.94;;;-2.46;88.63
65872;BME280;52653;50.080;21.992;2023-02-23T04:26:33;99395.70;;;-2.43;88.56
65872;BME280;52653;50.080;21.992;2023-02-23T04:29:28;99398.11;;;-2.40;88.76
65872;BME280;52653;50.080;21.992;2023-02-23T04:32:21;99397.73;;;-2.36;88.68
65872;BME280;52653;50.080;21.992;2023-02-23T04:35:15;99399.86;;;-2.34;88.80
65872;BME280;52653;50.080;21.992;2023-02-23T04:38:00;99395.89;;;-2.31;88.73
65872;BME280;52653;50.080;21.992;2023-02-23T04:40:53;99396.08;;;-2.27;88.59
65872;BME280;52653;50.080;21.992;2023-02-23T04:43:46;99398.28;;;-2.24;88.50
65872;BME280;52653;50.080;21.992;2023-02-23T04:46:39;99396.70;;;-2.21;88.48
65872;BME280;52653;50.080;21.992;2023-02-23T04:49:32;99395.13;;;-2.18;88.36
65872;BME280;52653;50.080;21.992;2023-02-23T04:52:18;99391.06;;;-2.16;88.17
65872;BME280;52653;50.080;21.992;2023-02-23T04:55:16;99393.23;;;-2.18;88.08
65872;BME280;52653;50.080;21.992;2023-02-23T04:58:10;99388.90;;;-2.23;88.18
65872;BME280;52653;50.080;21.992;2023-02-23T05:01:08;99384.65;;;-2.29;88.34
65872;BME280;52653;50.080;21.992;2023-02-23T05:04:01;99384.84;;;-2.36;88.48
65872;BME280;52653;50.080;21.992;2023-02-23T05:06:54;99384.34;;;-2.43;88.62
65872;BME280;52653;50.080;21.992;2023-02-23T05:09:47;99386.39;;;-2.48;88.69
65872;BME280;52653;50.080;21.992;2023-02-23T05:12:40;99389.67;;;-2.51;88.63
65872;BME280;52653;50.080;21.992;2023-02-23T05:15:33;99389.77;;;-2.52;88.98
65872;BME280;52653;50.080;21.992;2023-02-23T05:18:26;99390.45;;;-2.52;89.20
65872;BME280;52653;50.080;21.992;2023-02-23T05:21:20;99392.31;;;-2.53;89.14
65872;BME280;52653;50.080;21.992;2023-02-23T05:24:13;99393.51;;;-2.53;89.29
65872;BME280;52653;50.080;21.992;2023-02-23T05:27:09;99397.48;;;-2.53;89.05
65872;BME280;52653;50.080;21.992;2023-02-23T05:30:05;99399.91;;;-2.52;88.85
65872;BME280;52653;50.080;21.992;2023-02-23T05:33:00;99402.91;;;-2.50;88.47
65872;BME280;52653;50.080;21.992;2023-02-23T05:35:52;99406.77;;;-2.48;88.50
65872;BME280;52653;50.080;21.992;2023-02-23T05:38:47;99410.71;;;-2.45;88.33
65872;BME280;52653;50.080;21.992;2023-02-23T05:41:32;99410.30;;;-2.39;88.43
65872;BME280;52653;50.080;21.992;2023-02-23T05:44:25;99408.54;;;-2.32;88.45
65872;BME280;52653;50.080;21.992;2023-02-23T05:47:18;99409.91;;;-2.25;88.58
65872;BME280;52653;50.080;21.992;2023-02-23T05:50:12;99407.65;;;-2.18;89.06
65872;BME280;52653;50.080;21.992;2023-02-23T05:53:05;99407.75;;;-2.09;89.27
65872;BME280;52653;50.080;21.992;2023-02-23T05:56:00;99405.30;;;-1.98;89.41
65872;BME280;52653;50.080;21.992;2023-02-23T05:58:53;99408.80;;;-1.85;89.35
65872;BME280;52653;50.080;21.992;2023-02-23T06:01:48;99407.95;;;-1.73;89.25
65872;BME280;52653;50.080;21.992;2023-02-23T06:04:41;99410.34;;;-1.62;89.23
65872;BME280;52653;50.080;21.992;2023-02-23T06:07:34;99411.64;;;-1.44;89.56
65872;BME280;52653;50.080;21.992;2023-02-23T06:10:27;99415.73;;;-1.21;89.47
65872;BME280;52653;50.080;21.992;2023-02-23T06:13:21;99415.05;;;-1.00;89.12
65872;BME280;52653;50.080;21.992;2023-02-23T06:16:14;99417.27;;;-0.83;88.43
65872;BME280;52653;50.080;21.992;2023-02-23T06:19:07;99418.09;;;-0.72;88.14
65872;BME280;52653;50.080;21.992;2023-02-23T06:21:54;99415.02;;;-0.67;87.73
65872;BME280;52653;50.080;21.992;2023-02-23T06:24:47;99414.43;;;-0.64;87.78
65872;BME280;52653;50.080;21.992;2023-02-23T06:27:42;99413.50;;;-0.62;88.02
65872;BME280;52653;50.080;21.992;2023-02-23T06:30:29;99414.02;;;-0.57;88.50
65872;BME280;52653;50.080;21.992;2023-02-23T06:33:23;99416.52;;;-0.46;88.70
65872;BME280;52653;50.080;21.992;2023-02-23T06:36:16;99409.93;;;-0.29;88.79
65872;BME280;52653;50.080;21.992;2023-02-23T06:39:10;99408.73;;;-0.11;88.45
65872;BME280;52653;50.080;21.992;2023-02-23T06:42:03;99409.71;;;0.06;88.51
65872;BME280;52653;50.080;21.992;2023-02-23T06:44:58;99412.70;;;0.21;88.29
65872;BME280;52653;50.080;21.992;2023-02-23T06:47:51;99414.40;;;0.35;87.99
65872;BME280;52653;50.080;21.992;2023-02-23T06:50:45;99412.73;;;0.51;87.86
65872;BME280;52653;50.080;21.992;2023-02-23T06:53:38;99411.88;;;0.66;87.59
65872;BME280;52653;50.080;21.992;2023-02-23T06:56:32;99408.69;;;0.78;87.26
65872;BME280;52653;50.080;21.992;2023-02-23T06:59:25;99411.14;;;0.84;86.85
65872;BME280;52653;50.080;21.992;2023-02-23T07:02:21;99412.88;;;0.90;86.76
65872;BME280;52653;50.080;21.992;2023-02-23T07:05:14;99411.59;;;0.98;86.61
65872;BME280;52653;50.080;21.992;2023-02-23T07:08:10;99410.13;;;1.11;86.53
65872;BME280;52653;50.080;21.992;2023-02-23T07:11:07;99411.61;;;1.25;86.11
65872;BME280;52653;50.080;21.992;2023-02-23T07:13:56;99410.92;;;1.35;85.69
65872;BME280;52653;50.080;21.992;2023-02-23T07:16:49;99408.96;;;1.50;85.47
65872;BME280;52653;50.080;21.992;2023-02-23T07:19:42;99399.70;;;1.63;84.97
65872;BME280;52653;50.080;21.992;2023-02-23T07:22:35;99403.19;;;1.75;84.38
65872;BME280;52653;50.080;21.992;2023-02-23T07:25:30;99406.88;;;1.89;84.36
65872;BME280;52653;50.080;21.992;2023-02-23T07:28:23;99403.77;;;1.94;83.59
65872;BME280;52653;50.080;21.992;2023-02-23T07:31:18;99406.73;;;1.95;83.28
65872;BME280;52653;50.080;21.992;2023-02-23T07:34:10;99404.86;;;1.97;83.02
65872;BME280;52653;50.080;21.992;2023-02-23T07:37:05;99398.98;;;2.02;83.18
65872;BME280;52653;50.080;21.992;2023-02-23T07:39:58;99402.38;;;2.12;82.66
65872;BME280;52653;50.080;21.992;2023-02-23T07:42:53;99399.76;;;2.23;82.30
65872;BME280;52653;50.080;21.992;2023-02-23T07:45:40;99395.23;;;2.34;81.83
65872;BME280;52653;50.080;21.992;2023-02-23T07:48:37;99393.60;;;2.45;81.41
65872;BME280;52653;50.080;21.992;2023-02-23T07:51:36;99392.38;;;2.51;81.10
65872;BME280;52653;50.080;21.992;2023-02-23T07:54:21;99388.83;;;2.60;81.12
65872;BME280;52653;50.080;21.992;2023-02-23T07:57:14;99388.72;;;2.69;80.86
65872;BME280;52653;50.080;21.992;2023-02-23T08:00:11;99394.38;;;2.74;80.16
65872;BME280;52653;50.080;21.992;2023-02-23T08:02:44;99397.64;;;2.79;80.08
65872;BME280;52653;50.080;21.992;2023-02-23T08:05:37;99394.23;;;2.94;79.99
65872;BME280;52653;50.080;21.992;2023-02-23T08:08:30;99394.95;;;3.10;79.03
65872;BME280;52653;50.080;21.992;2023-02-23T08:11:24;99394.14;;;3.18;77.90
65872;BME280;52653;50.080;21.992;2023-02-23T08:14:19;99396.50;;;3.22;77.41
65872;BME280;52653;50.080;21.992;2023-02-23T08:17:14;99390.97;;;3.23;76.85
65872;BME280;52653;50.080;21.992;2023-02-23T08:20:09;99395.81;;;3.30;77.48
65872;BME280;52653;50.080;21.992;2023-02-23T08:23:03;99393.02;;;3.36;77.08
65872;BME280;52653;50.080;21.992;2023-02-23T08:25:56;99389.39;;;3.44;76.46
65872;BME280;52653;50.080;21.992;2023-02-23T08:28:30;99386.59;;;3.51;76.40
65872;BME280;52653;50.080;21.992;2023-02-23T08:31:16;99388.71;;;3.60;76.07
65872;BME280;52653;50.080;21.992;2023-02-23T08:34:05;99395.89;;;3.78;76.07
65872;BME280;52653;50.080;21.992;2023-02-23T08:36:58;99395.39;;;3.95;75.20
65872;BME280;52653;50.080;21.992;2023-02-23T08:39:51;99396.10;;;4.05;73.76
65872;BME280;52653;50.080;21.992;2023-02-23T08:42:45;99394.27;;;4.07;73.19
65872;BME280;52653;50.080;21.992;2023-02-23T08:45:38;99397.04;;;4.16;73.18
65872;BME280;52653;50.080;21.992;2023-02-23T08:48:24;99394.20;;;4.20;72.48
65872;BME280;52653;50.080;21.992;2023-02-23T08:51:17;99391.77;;;4.29;72.60
65872;BME280;52653;50.080;21.992;2023-02-23T08:54:11;99389.73;;;4.41;72.51
65872;BME280;52653;50.080;21.992;2023-02-23T08:57:07;99389.33;;;4.45;71.46
65872;BME280;52653;50.080;21.992;2023-02-23T09:00:03;99383.48;;;4.48;70.83
65872;BME280;52653;50.080;21.992;2023-02-23T09:03:02;99383.34;;;4.51;70.71
65872;BME280;52653;50.080;21.992;2023-02-23T09:05:56;99383.33;;;4.59;70.86
65872;BME280;52653;50.080;21.992;2023-02-23T09:08:29;99378.68;;;4.71;71.32
65872;BME280;52653;50.080;21.992;2023-02-23T09:11:23;99373.95;;;4.87;71.06
65872;BME280;52653;50.080;21.992;2023-02-23T09:14:16;99377.53;;;4.94;69.84
65872;BME280;52653;50.080;21.992;2023-02-23T09:17:09;99378.33;;;4.89;69.07
65872;BME280;52653;50.080;21.992;2023-02-23T09:20:04;99380.04;;;4.88;69.45
65872;BME280;52653;50.080;21.992;2023-02-23T09:22:57;99382.29;;;4.87;68.95
65872;BME280;52653;50.080;21.992;2023-02-23T09:25:51;99380.05;;;4.89;69.22
65872;BME280;52653;50.080;21.992;2023-02-23T09:28:38;99380.00;;;4.95;69.15
65872;BME280;52653;50.080;21.992;2023-02-23T09:31:24;99374.68;;;4.99;68.77
65872;BME280;52653;50.080;21.992;2023-02-23T09:34:19;99375.73;;;5.10;68.91
65872;BME280;52653;50.080;21.992;2023-02-23T09:37:12;99376.70;;;5.18;68.07
65872;BME280;52653;50.080;21.992;2023-02-23T09:40:08;99379.10;;;5.25;67.98
65872;BME280;52653;50.080;21.992;2023-02-23T09:43:02;99372.84;;;5.24;67.28
65872;BME280;52653;50.080;21.992;2023-02-23T09:46:03;99376.34;;;5.16;67.29
65872;BME280;52653;50.080;21.992;2023-02-23T09:49:03;99374.44;;;5.16;67.97
65872;BME280;52653;50.080;21.992;2023-02-23T09:51:58;99371.73;;;5.21;68.44
65872;BME280;52653;50.080;21.992;2023-02-23T09:54:54;99373.03;;;5.25;68.26
65872;BME280;52653;50.080;21.992;2023-02-23T09:57:48;99367.02;;;5.31;67.73
65872;BME280;52653;50.080;21.992;2023-02-23T10:00:44;99366.05;;;5.24;67.06
65872;BME280;52653;50.080;21.992;2023-02-23T10:03:32;99365.98;;;5.20;67.54
65872;BME280;52653;50.080;21.992;2023-02-23T10:06:26;99359.35;;;5.29;67.91
65872;BME280;52653;50.080;21.992;2023-02-23T10:09:26;99356.05;;;5.41;67.56
65872;BME280;52653;50.080;21.992;2023-02-23T10:12:25;99357.09;;;5.52;67.25
65872;BME280;52653;50.080;21.992;2023-02-23T10:15:36;99353.77;;;5.63;66.53
65872;BME280;52653;50.080;21.992;2023-02-23T10:18:37;99353.31;;;5.68;66.66
65872;BME280;52653;50.080;21.992;2023-02-23T10:21:32;99349.05;;;5.73;66.27
65872;BME280;52653;50.080;21.992;2023-02-23T10:24:25;99349.36;;;5.83;66.37
65872;BME280;52653;50.080;21.992;2023-02-23T10:27:21;99342.50;;;5.90;65.78
65872;BME280;52653;50.080;21.992;2023-02-23T10:30:20;99344.77;;;5.89;65.86
65872;BME280;52653;50.080;21.992;2023-02-23T10:33:17;99339.56;;;5.92;65.21
65872;BME280;52653;50.080;21.992;2023-02-23T10:36:16;99336.20;;;6.01;65.24
65872;BME280;52653;50.080;21.992;2023-02-23T10:39:14;99333.83;;;6.06;64.93
65872;BME280;52653;50.080;21.992;2023-02-23T10:42:12;99329.79;;;6.18;65.61
65872;BME280;52653;50.080;21.992;2023-02-23T10:45:13;99324.18;;;6.29;65.26
65872;BME280;52653;50.080;21.992;2023-02-23T10:48:15;99319.73;;;6.35;64.99
65872;BME280;52653;50.080;21.992;2023-02-23T10:51:16;99308.51;;;6.29;64.06
65872;BME280;52653;50.080;21.992;2023-02-23T10:57:39;99306.77;;;6.29;65.00
65872;BME280;52653;50.080;21.992;2023-02-23T11:00:33;99308.63;;;6.41;64.75
65872;BME280;52653;50.080;21.992;2023-02-23T11:03:31;99304.23;;;6.53;64.24
65872;BME280;52653;50.080;21.992;2023-02-23T11:06:33;99301.98;;;6.57;63.83
65872;BME280;52653;50.080;21.992;2023-02-23T11:09:27;99299.38;;;6.58;63.48
65872;BME280;52653;50.080;21.992;2023-02-23T11:12:39;99299.08;;;6.61;63.44
65872;BME280;52653;50.080;21.992;2023-02-23T11:15:35;99296.31;;;6.61;63.07
65872;BME280;52653;50.080;21.992;2023-02-23T11:18:43;99293.04;;;6.68;63.28
65872;BME280;52653;50.080;21.992;2023-02-23T11:21:50;99288.17;;;6.68;62.99
65872;BME280;52653;50.080;21.992;2023-02-23T11:24:42;99284.52;;;6.69;63.34
65872;BME280;52653;50.080;21.992;2023-02-23T11:27:35;99280.03;;;6.75;63.41
65872;BME280;52653;50.080;21.992;2023-02-23T11:30:34;99275.23;;;6.86;63.48
65872;BME280;52653;50.080;21.992;2023-02-23T11:33:34;99273.39;;;6.93;63.18
65872;BME280;52653;50.080;21.992;2023-02-23T11:36:30;99271.64;;;6.94;62.96
65872;BME280;52653;50.080;21.992;2023-02-23T11:39:18;99268.84;;;6.91;62.87
65872;BME280;52653;50.080;21.992;2023-02-23T11:42:16;99262.88;;;6.87;63.29
65872;BME280;52653;50.080;21.992;2023-02-23T11:45:16;99262.02;;;6.86;63.26
65872;BME280;52653;50.080;21.992;2023-02-23T11:48:21;99260.41;;;6.85;63.50
65872;BME280;52653;50.080;21.992;2023-02-23T11:51:25;99256.20;;;6.79;63.01
65872;BME280;52653;50.080;21.992;2023-02-23T11:54:24;99251.06;;;6.72;63.65
65872;BME280;52653;50.080;21.992;2023-02-23T11:57:21;99244.30;;;6.74;63.92
65872;BME280;52653;50.080;21.992;2023-02-23T12:00:24;99233.77;;;6.65;63.73
65872;BME280;52653;50.080;21.992;2023-02-23T12:03:21;99230.55;;;6.56;64.15
65872;BME280;52653;50.080;21.992;2023-02-23T12:06:26;99229.98;;;6.52;64.33
65872;BME280;52653;50.080;21.992;2023-02-23T12:09:18;99227.00;;;6.49;64.42
65872;BME280;52653;50.080;21.992;2023-02-23T12:12:15;99224.34;;;6.45;64.70
65872;BME280;52653;50.080;21.992;2023-02-23T12:15:17;99218.93;;;6.43;65.34
65872;BME280;52653;50.080;21.992;2023-02-23T12:18:25;99215.61;;;6.42;66.02
65872;BME280;52653;50.080;21.992;2023-02-23T12:21:26;99213.36;;;6.43;66.12
65872;BME280;52653;50.080;21.992;2023-02-23T12:24:27;99211.77;;;6.40;66.49
65872;BME280;52653;50.080;21.992;2023-02-23T12:27:30;99209.50;;;6.39;66.41
65872;BME280;52653;50.080;21.992;2023-02-23T12:30:37;99204.56;;;6.34;66.35
65872;BME280;52653;50.080;21.992;2023-02-23T12:33:38;99198.96;;;6.31;66.57
65872;BME280;52653;50.080;21.992;2023-02-23T12:36:36;99200.85;;;6.26;66.46
65872;BME280;52653;50.080;21.992;2023-02-23T12:39:33;99199.99;;;6.30;66.66
65872;BME280;52653;50.080;21.992;2023-02-23T12:42:34;99197.16;;;6.43;66.64
65872;BME280;52653;50.080;21.992;2023-02-23T12:45:34;99192.95;;;6.60;66.76
65872;BME280;52653;50.080;21.992;2023-02-23T12:48:37;99190.22;;;6.71;66.17
65872;BME280;52653;50.080;21.992;2023-02-23T12:51:37;99187.43;;;6.70;65.93
65872;BME280;52653;50.080;21.992;2023-02-23T12:54:32;99184.63;;;6.68;66.01
65872;BME280;52653;50.080;21.992;2023-02-23T12:57:31;99181.55;;;6.74;66.10
65872;BME280;52653;50.080;21.992;2023-02-23T13:00:45;99181.00;;;6.72;65.71
65872;BME280;52653;50.080;21.992;2023-02-23T13:07:32;99174.56;;;6.73;66.46
65872;BME280;52653;50.080;21.992;2023-02-23T13:10:34;99168.02;;;6.83;66.48
65872;BME280;52653;50.080;21.992;2023-02-23T13:13:32;99165.11;;;6.91;65.59
65872;BME280;52653;50.080;21.992;2023-02-23T13:16:37;99160.40;;;6.91;65.88
65872;BME280;52653;50.080;21.992;2023-02-23T13:19:43;99153.60;;;6.91;65.51
65872;BME280;52653;50.080;21.992;2023-02-23T13:22:43;99150.45;;;6.89;65.75
65872;BME280;52653;50.080;21.992;2023-02-23T13:25:44;99145.23;;;6.91;65.65
65872;BME280;52653;50.080;21.992;2023-02-23T13:28:50;99142.98;;;6.95;65.81
65872;BME280;52653;50.080;21.992;2023-02-23T13:31:49;99130.27;;;6.97;65.68
65872;BME280;52653;50.080;21.992;2023-02-23T13:34:44;99125.54;;;6.96;65.52
65872;BME280;52653;50.080;21.992;2023-02-23T13:37:46;99124.02;;;7.00;65.66
65872;BME280;52653;50.080;21.992;2023-02-23T13:40:41;99121.94;;;7.06;65.97
65872;BME280;52653;50.080;21.992;2023-02-23T13:43:43;99122.66;;;7.11;65.62
65872;BME280;52653;50.080;21.992;2023-02-23T13:46:46;99121.11;;;7.13;65.42
65872;BME280;52653;50.080;21.992;2023-02-23T13:49:39;99120.42;;;7.14;65.38
65872;BME280;52653;50.080;21.992;2023-02-23T13:52:38;99115.51;;;7.10;65.10
65872;BME280;52653;50.080;21.992;2023-02-23T13:55:43;99118.45;;;7.06;65.38
65872;BME280;52653;50.080;21.992;2023-02-23T13:58:46;99109.56;;;7.08;65.55
65872;BME280;52653;50.080;21.992;2023-02-23T14:01:42;99103.98;;;7.06;65.62
65872;BME280;52653;50.080;21.992;2023-02-23T14:04:37;99099.81;;;7.10;65.92
65872;BME280;52653;50.080;21.992;2023-02-23T14:07:27;99098.09;;;7.14;65.60
65872;BME280;52653;50.080;21.992;2023-02-23T14:10:23;99093.21;;;7.17;65.83
65872;BME280;52653;50.080;21.992;2023-02-23T14:16:19;99089.91;;;7.20;65.86
65872;BME280;52653;50.080;21.992;2023-02-23T14:22:23;99091.12;;;7.15;66.02
65872;BME280;52653;50.080;21.992;2023-02-23T14:25:46;99082.40;;;7.15;65.92
65872;BME280;52653;50.080;21.992;2023-02-23T14:28:40;99082.02;;;7.09;65.72
65872;BME280;52653;50.080;21.992;2023-02-23T14:31:35;99081.30;;;7.05;65.95
65872;BME280;52653;50.080;21.992;2023-02-23T14:34:50;99080.39;;;6.99;66.05
65872;BME280;52653;50.080;21.992;2023-02-23T14:37:43;99075.49;;;6.92;65.99
65872;BME280;52653;50.080;21.992;2023-02-23T14:40:54;99078.08;;;6.85;66.39
65872;BME280;52653;50.080;21.992;2023-02-23T14:43:51;99073.16;;;6.78;66.71
65872;BME280;52653;50.080;21.992;2023-02-23T14:47:10;99074.69;;;6.73;67.19
65872;BME280;52653;50.080;21.992;2023-02-23T14:50:09;99072.92;;;6.68;67.42
65872;BME280;52653;50.080;21.992;2023-02-23T14:53:09;99068.54;;;6.62;67.52
65872;BME280;52653;50.080;21.992;2023-02-23T14:56:24;99066.58;;;6.57;67.93
65872;BME280;52653;50.080;21.992;2023-02-23T14:59:40;99065.53;;;6.55;68.03
65872;BME280;52653;50.080;21.992;2023-02-23T15:02:34;99056.11;;;6.52;68.18
65872;BME280;52653;50.080;21.992;2023-02-23T15:05:45;99050.14;;;6.44;68.58
65872;BME280;52653;50.080;21.992;2023-02-23T15:08:44;99049.73;;;6.35;68.79
65872;BME280;52653;50.080;21.992;2023-02-23T15:11:38;99051.05;;;6.24;69.19
65872;BME280;52653;50.080;21.992;2023-02-23T15:14:38;99049.23;;;6.13;69.56
65872;BME280;52653;50.080;21.992;2023-02-23T15:17:34;99044.09;;;6.02;70.01
65872;BME280;52653;50.080;21.992;2023-02-23T15:20:32;99043.30;;;5.92;70.38
65872;BME280;52653;50.080;21.992;2023-02-23T15:23:24;99036.58;;;5.82;70.74
65872;BME280;52653;50.080;21.992;2023-02-23T15:26:24;99034.41;;;5.73;71.12
65872;BME280;52653;50.080;21.992;2023-02-23T15:29:24;99032.29;;;5.70;71.25
65872;BME280;52653;50.080;21.992;2023-02-23T15:32:21;99031.07;;;5.68;71.46
65872;BME280;52653;50.080;21.992;2023-02-23T15:35:17;99031.23;;;5.68;71.54
65872;BME280;52653;50.080;21.992;2023-02-23T15:38:17;99034.54;;;5.67;71.63
65872;BME280;52653;50.080;21.992;2023-02-23T15:41:34;99027.19;;;5.61;71.83
65872;BME280;52653;50.080;21.992;2023-02-23T15:44:30;99028.84;;;5.53;71.94
65872;BME280;52653;50.080;21.992;2023-02-23T15:47:36;99024.56;;;5.42;72.13
65872;BME280;52653;50.080;21.992;2023-02-23T15:50:33;99017.66;;;5.28;72.68
65872;BME280;52653;50.080;21.992;2023-02-23T15:53:33;99019.95;;;5.16;72.88
65872;BME280;52653;50.080;21.992;2023-02-23T15:56:28;99015.97;;;5.01;73.46